Time;durP1;ratioP1;P1;durP2;ratioP2;P2;SDS_P1;SDS_P2;PMS_P1;PMS_P2;Temp;Humidity;BMP_temperature;BMP_pressure;BME280_temperature;BME280_humidity;BME280_pressure;Samples;Min_cycle;Max_cycle;Signal;HPM_P1;HPM_P2
2021/09/12 15:21:50;;;;;;;5.13;1.37;;;19.20;85.40;;;;;;5127332;27;20979;-72
2021/09/12 15:24:16;;;;;;;3.67;1.20;;;19.20;91.80;;;;;;5113321;28;20059;-70
2021/09/12 15:26:41;;;;;;;3.43;1.10;;;19.10;91.70;;;;;;5123288;27;20039;-71
2021/09/12 15:29:07;;;;;;;1.90;1.07;;;19.10;91.30;;;;;;5125932;28;20046;-72
2021/09/12 15:31:41;;;;;;;5.43;1.40;;;19.10;90.60;;;;;;5125641;28;20048;-71
2021/09/12 15:34:07;;;;;;;3.37;1.07;;;19.20;90.20;;;;;;5125316;27;20039;-72
2021/09/12 15:36:33;;;;;;;5.33;1.03;;;19.10;90.00;;;;;;5126176;27;20035;-72
2021/09/12 15:38:58;;;;;;;4.20;1.40;;;19.10;89.10;;;;;;5126261;27;20876;-71
2021/09/12 15:41:24;;;;;;;4.23;1.10;;;19.10;88.90;;;;;;5124932;27;20495;-74
2021/09/12 15:43:50;;;;;;;4.03;1.17;;;19.10;87.60;;;;;;5125222;28;20032;-72
2021/09/12 15:46:15;;;;;;;2.43;1.00;;;19.10;87.70;;;;;;5125528;28;20507;-72
2021/09/12 15:48:41;;;;;;;1.87;0.90;;;19.10;87.70;;;;;;5125024;27;20039;-71
2021/09/12 15:51:08;;;;;;;2.93;1.10;;;19.10;87.30;;;;;;5125097;28;20043;-72
2021/09/12 15:53:33;;;;;;;2.43;1.30;;;19.10;87.10;;;;;;5124548;28;20042;-72
2021/09/12 15:56:01;;;;;;;4.90;0.83;;;19.10;87.10;;;;;;5123552;27;20051;-71
2021/09/12 15:58:27;;;;;;;4.57;1.30;;;19.10;86.20;;;;;;5125632;28;20035;-71
2021/09/12 16:00:54;;;;;;;5.37;1.27;;;19.00;85.90;;;;;;5125534;28;20047;-71
2021/09/12 16:03:20;;;;;;;4.90;1.33;;;19.00;85.90;;;;;;5124180;27;20047;-71
2021/09/12 16:05:46;;;;;;;6.03;1.33;;;19.00;85.60;;;;;;5124537;28;20173;-70
2021/09/12 16:08:11;;;;;;;3.53;1.80;;;19.00;85.90;;;;;;5125309;28;20512;-71
2021/09/12 16:10:37;;;;;;;4.03;1.20;;;18.90;86.10;;;;;;5128041;27;20051;-72
2021/09/12 16:13:03;;;;;;;6.43;2.10;;;18.90;86.40;;;;;;5128348;27;20035;-71
2021/09/12 16:15:28;;;;;;;5.43;1.10;;;18.90;86.40;;;;;;5127665;27;20047;-71
2021/09/12 16:17:54;;;;;;;7.53;1.37;;;18.80;86.40;;;;;;5128359;27;20039;-71
2021/09/12 16:20:19;;;;;;;4.77;1.73;;;18.80;86.80;;;;;;5126811;28;20418;-72
2021/09/12 16:22:45;;;;;;;2.67;1.00;;;18.70;87.00;;;;;;5128625;28;20043;-73
2021/09/12 16:25:11;;;;;;;3.03;1.13;;;18.60;86.60;;;;;;5126718;28;20050;-71
2021/09/12 16:27:37;;;;;;;3.77;1.30;;;18.60;86.40;;;;;;5128659;28;20035;-71
2021/09/12 16:30:04;;;;;;;4.60;1.40;;;18.50;86.20;;;;;;5126680;28;20039;-72
2021/09/12 16:32:31;;;;;;;2.77;0.90;;;18.50;86.30;;;;;;5117302;28;20083;-72
2021/09/12 16:34:57;;;;;;;2.67;0.90;;;18.40;86.20;;;;;;5114576;28;20430;-72
2021/09/12 16:37:22;;;;;;;3.77;1.00;;;18.40;86.20;;;;;;5113488;28;20044;-71
2021/09/12 16:39:48;;;;;;;4.80;1.40;;;18.40;86.20;;;;;;5113964;28;20491;-71
2021/09/12 16:42:13;;;;;;;4.20;1.57;;;18.30;86.30;;;;;;5114207;28;20395;-71
2021/09/12 16:44:44;;;;;;;3.90;1.20;;;18.30;86.40;;;;;;5113941;28;20411;-71
2021/09/12 16:47:17;;;;;;;5.00;1.60;;;18.30;86.40;;;;;;5114396;28;20039;-70
2021/09/12 16:49:43;;;;;;;4.70;1.30;;;18.20;86.50;;;;;;5111688;28;20059;-71
2021/09/12 16:52:09;;;;;;;2.93;1.10;;;18.20;86.90;;;;;;5113600;28;20084;-73
2021/09/12 16:54:34;;;;;;;3.37;1.33;;;18.10;87.00;;;;;;5114448;28;20031;-73
2021/09/12 16:57:00;;;;;;;4.20;1.53;;;18.10;87.30;;;;;;5112793;28;20062;-71
2021/09/12 16:59:26;;;;;;;4.17;1.47;;;18.00;87.70;;;;;;5113091;28;20494;-71
2021/09/12 17:01:51;;;;;;;3.93;1.50;;;18.00;88.00;;;;;;5114492;28;20093;-69
2021/09/12 17:04:17;;;;;;;3.70;1.50;;;18.00;88.40;;;;;;5112134;28;20066;-70
2021/09/12 17:06:42;;;;;;;5.57;1.20;;;17.90;88.70;;;;;;5113189;28;20036;-72
2021/09/12 17:09:09;;;;;;;5.83;1.80;;;18.00;89.10;;;;;;5113404;28;20126;-73
2021/09/12 17:11:35;;;;;;;6.10;1.87;;;17.90;89.70;;;;;;5113179;28;20084;-71
2021/09/12 17:14:01;;;;;;;5.23;1.63;;;17.80;90.00;;;;;;5113250;28;20040;-72
2021/09/12 17:16:27;;;;;;;3.37;1.30;;;17.80;90.00;;;;;;5113843;28;20044;-69
2021/09/12 17:18:53;;;;;;;6.53;1.70;;;17.80;90.20;;;;;;5112054;28;20057;-70
2021/09/12 17:21:19;;;;;;;8.13;1.40;;;17.80;90.30;;;;;;5110791;28;20040;-70
2021/09/12 17:23:44;;;;;;;7.67;1.67;;;17.70;90.40;;;;;;5113931;28;20105;-71
2021/09/12 17:26:10;;;;;;;7.87;1.27;;;17.70;90.50;;;;;;5113016;28;20036;-71
2021/09/12 17:28:35;;;;;;;4.53;1.30;;;17.60;90.60;;;;;;5113611;28;20202;-71
2021/09/12 17:31:01;;;;;;;9.40;1.40;;;17.60;90.80;;;;;;5114503;28;20440;-71
2021/09/12 17:33:27;;;;;;;5.47;1.40;;;17.50;90.90;;;;;;5113270;28;20801;-71
2021/09/12 17:35:53;;;;;;;8.27;1.53;;;17.50;90.90;;;;;;5114519;28;20110;-72
2021/09/12 17:38:19;;;;;;;7.67;1.50;;;17.40;91.00;;;;;;5140717;27;20558;-72
2021/09/12 17:40:44;;;;;;;6.27;1.47;;;17.40;91.10;;;;;;5110898;28;20374;-71
2021/09/12 17:43:10;;;;;;;6.63;1.57;;;17.30;91.20;;;;;;5112663;28;20044;-71
2021/09/12 17:45:36;;;;;;;5.20;1.57;;;17.30;91.30;;;;;;5113163;28;20453;-71
2021/09/12 17:48:01;;;;;;;6.07;1.40;;;17.30;91.40;;;;;;5111758;28;20437;-71
2021/09/12 17:50:27;;;;;;;7.17;1.23;;;17.20;91.50;;;;;;5113478;28;20047;-71
2021/09/12 17:52:53;;;;;;;5.40;1.43;;;17.20;91.60;;;;;;5114174;28;20059;-71
2021/09/12 17:55:18;;;;;;;5.43;1.63;;;17.10;92.10;;;;;;5109760;28;20082;-71
2021/09/12 17:57:44;;;;;;;8.17;1.63;;;17.10;91.90;;;;;;5113241;28;20078;-70
2021/09/12 18:00:10;;;;;;;5.77;1.80;;;17.00;91.90;;;;;;5112230;28;20043;-70
2021/09/12 18:02:36;;;;;;;8.23;1.80;;;17.00;92.10;;;;;;5110392;28;20040;-70
2021/09/12 18:05:03;;;;;;;6.63;1.57;;;16.90;92.20;;;;;;5112445;28;20483;-70
2021/09/12 18:07:28;;;;;;;5.40;1.80;;;16.90;92.30;;;;;;5112122;28;20047;-70
2021/09/12 18:09:54;;;;;;;6.83;2.03;;;16.80;92.40;;;;;;5110469;28;20067;-72
2021/09/12 18:12:20;;;;;;;7.30;1.93;;;16.80;92.60;;;;;;5111431;28;20039;-71
2021/09/12 18:14:45;;;;;;;5.47;1.40;;;16.70;92.70;;;;;;5112318;28;20036;-71
2021/09/12 18:17:11;;;;;;;6.40;2.33;;;16.70;92.80;;;;;;5110926;28;20089;-71
2021/09/12 18:19:37;;;;;;;5.53;1.63;;;16.70;93.00;;;;;;5111813;28;20544;-70
2021/09/12 18:22:03;;;;;;;3.40;1.23;;;16.60;93.00;;;;;;5111501;28;20467;-69
2021/09/12 18:24:29;;;;;;;5.97;1.47;;;16.60;93.20;;;;;;5110883;28;20114;-72
2021/09/12 18:26:54;;;;;;;4.43;1.37;;;16.60;93.30;;;;;;5111911;28;20135;-69
2021/09/12 18:29:20;;;;;;;6.57;1.83;;;16.50;93.30;;;;;;5111241;28;20042;-70
2021/09/12 18:31:49;;;;;;;8.63;1.80;;;16.50;93.50;;;;;;5109653;28;20069;-70
2021/09/12 18:34:15;;;;;;;7.17;1.93;;;16.50;93.60;;;;;;5110286;28;20083;-70
2021/09/12 18:36:42;;;;;;;6.87;1.40;;;16.50;93.60;;;;;;5110849;28;20092;-71
2021/09/12 18:39:08;;;;;;;4.70;1.50;;;16.40;93.70;;;;;;5111636;28;20061;-71
2021/09/12 18:41:33;;;;;;;6.90;1.90;;;16.40;93.80;;;;;;5111383;28;20115;-70
2021/09/12 18:43:59;;;;;;;7.30;1.27;;;16.40;93.90;;;;;;5110737;28;20503;-70
2021/09/12 18:46:24;;;;;;;4.67;1.73;;;16.30;94.00;;;;;;5109404;28;20066;-71
2021/09/12 18:48:50;;;;;;;8.10;1.90;;;16.30;94.10;;;;;;5110142;28;20067;-71
2021/09/12 18:51:16;;;;;;;5.37;1.80;;;16.20;94.20;;;;;;5109035;28;20138;-72
2021/09/12 18:53:52;;;;;;;5.93;1.43;;;16.20;94.30;;;;;;5110233;28;20042;-71
2021/09/12 18:56:18;;;;;;;8.63;1.70;;;16.10;94.40;;;;;;5109352;28;20138;-71
2021/09/12 18:58:44;;;;;;;4.80;1.20;;;16.10;94.40;;;;;;5109576;28;20043;-69
2021/09/12 19:01:10;;;;;;;7.63;1.40;;;16.10;94.50;;;;;;5110708;28;20487;-71
2021/09/12 19:03:35;;;;;;;9.50;1.70;;;16.00;94.40;;;;;;5111409;28;20121;-70
2021/09/12 19:06:01;;;;;;;4.47;1.00;;;16.00;94.40;;;;;;5107631;28;20565;-70
2021/09/12 19:08:27;;;;;;;7.57;1.67;;;16.00;94.50;;;;;;5110030;28;20422;-71
2021/09/12 19:10:54;;;;;;;6.93;1.37;;;16.00;94.50;;;;;;5111112;28;20089;-70
2021/09/12 19:13:20;;;;;;;5.87;1.50;;;15.90;94.50;;;;;;5110245;28;20166;-71
2021/09/12 19:15:45;;;;;;;7.07;1.30;;;15.90;94.60;;;;;;5111080;28;20517;-71
2021/09/12 19:18:11;;;;;;;3.70;1.47;;;15.90;94.60;;;;;;5111601;28;20384;-71
2021/09/12 19:20:36;;;;;;;6.67;1.40;;;15.90;94.70;;;;;;5110583;28;20083;-70
2021/09/12 19:23:02;;;;;;;7.00;1.47;;;15.90;94.70;;;;;;5111455;28;20057;-70
2021/09/12 19:25:27;;;;;;;7.87;1.53;;;15.80;94.70;;;;;;5110144;28;20043;-70
2021/09/12 19:27:54;;;;;;;7.03;1.70;;;15.80;94.80;;;;;;5110781;28;20431;-70
2021/09/12 19:30:21;;;;;;;7.20;1.53;;;15.80;94.80;;;;;;5109979;28;20047;-72
2021/09/12 19:32:46;;;;;;;7.70;1.30;;;15.70;94.80;;;;;;5109274;28;20115;-71
2021/09/12 19:35:14;;;;;;;5.90;1.37;;;15.80;94.90;;;;;;5110292;28;20412;-71
2021/09/12 19:37:40;;;;;;;7.27;1.83;;;15.70;94.90;;;;;;5111658;28;20035;-70
2021/09/12 19:40:06;;;;;;;6.40;1.50;;;15.70;95.00;;;;;;5110722;28;20699;-70
2021/09/12 19:42:32;;;;;;;7.93;1.50;;;15.70;95.00;;;;;;5111791;28;20118;-70
2021/09/12 19:44:59;;;;;;;5.07;1.30;;;15.60;95.40;;;;;;5111928;28;20111;-70
2021/09/12 19:47:25;;;;;;;5.07;1.50;;;15.60;95.10;;;;;;5110360;28;20039;-70
2021/09/12 19:49:50;;;;;;;9.13;1.40;;;15.60;95.10;;;;;;5110429;28;20547;-70
2021/09/12 19:52:16;;;;;;;7.30;2.07;;;15.60;95.20;;;;;;5111548;28;20031;-70
2021/09/12 19:54:42;;;;;;;7.83;1.70;;;15.50;95.30;;;;;;5110192;28;20051;-70
2021/09/12 19:57:08;;;;;;;6.53;1.40;;;15.50;95.30;;;;;;5111339;28;20188;-71
2021/09/12 19:59:33;;;;;;;8.67;1.90;;;15.50;95.40;;;;;;5110194;28;20130;-71
2021/09/12 20:01:59;;;;;;;10.13;1.80;;;15.50;95.40;;;;;;5110849;28;20115;-71
2021/09/12 20:04:24;;;;;;;6.80;1.83;;;15.50;95.50;;;;;;5111254;28;20063;-70
2021/09/12 20:06:50;;;;;;;7.80;1.53;;;15.40;95.50;;;;;;5112746;28;20380;-70
2021/09/12 20:09:16;;;;;;;7.33;1.80;;;15.40;95.60;;;;;;5113374;28;20514;-71
2021/09/12 20:11:41;;;;;;;5.47;1.27;;;15.40;95.70;;;;;;5115437;28;20467;-71
2021/09/12 20:14:07;;;;;;;5.80;1.57;;;15.40;95.80;;;;;;5115212;28;20054;-70
2021/09/12 20:16:32;;;;;;;10.43;2.00;;;15.40;95.80;;;;;;5114560;28;20047;-70
2021/09/12 20:18:58;;;;;;;7.67;2.00;;;15.40;95.90;;;;;;5114376;28;20036;-70
2021/09/12 20:21:27;;;;;;;7.77;1.53;;;15.30;95.90;;;;;;5112420;28;20054;-71
2021/09/12 20:23:53;;;;;;;4.53;1.97;;;15.30;96.00;;;;;;5113887;28;20036;-69
2021/09/12 20:26:19;;;;;;;9.37;2.47;;;15.30;96.00;;;;;;5113103;28;20048;-70
2021/09/12 20:28:45;;;;;;;5.90;1.60;;;15.30;96.10;;;;;;5112819;28;20548;-70
2021/09/12 20:31:11;;;;;;;8.67;1.83;;;15.30;96.20;;;;;;5113352;28;20040;-70
2021/09/12 20:33:36;;;;;;;4.93;1.60;;;15.20;96.20;;;;;;5112595;28;20039;-70
2021/09/12 20:36:02;;;;;;;7.07;1.63;;;15.20;96.30;;;;;;5113585;28;20382;-70
2021/09/12 20:38:28;;;;;;;5.20;1.90;;;15.20;96.80;;;;;;5112300;28;20050;-70
2021/09/12 20:40:54;;;;;;;5.73;1.80;;;15.20;96.40;;;;;;5114157;28;20047;-70
2021/09/12 20:43:23;;;;;;;6.97;2.20;;;15.20;96.50;;;;;;5112538;28;20039;-70
2021/09/12 20:45:50;;;;;;;9.50;2.23;;;15.20;96.50;;;;;;5111367;28;20447;-69
2021/09/12 20:48:15;;;;;;;11.90;3.23;;;15.20;96.60;;;;;;5111928;28;20048;-70
2021/09/12 20:50:43;;;;;;;6.97;2.03;;;15.20;96.60;;;;;;5113313;28;20510;-70
2021/09/12 20:53:09;;;;;;;8.47;2.00;;;15.20;96.70;;;;;;5110978;28;20104;-68
2021/09/12 20:55:34;;;;;;;10.37;2.03;;;15.10;96.70;;;;;;5113673;28;20043;-68
2021/09/12 20:58:00;;;;;;;7.97;2.20;;;15.10;96.90;;;;;;5112894;28;20039;-68
2021/09/12 21:00:25;;;;;;;8.80;1.87;;;15.10;96.90;;;;;;5113539;28;20040;-68
2021/09/12 21:02:51;;;;;;;5.23;1.90;;;15.10;97.00;;;;;;5114173;28;20042;-69
2021/09/12 21:05:17;;;;;;;7.93;2.20;;;15.10;97.00;;;;;;5113064;28;20392;-69
2021/09/12 21:07:42;;;;;;;8.53;2.57;;;15.10;97.10;;;;;;5113877;28;20688;-68
2021/09/12 21:10:13;;;;;;;6.60;2.10;;;15.10;97.10;;;;;;5113429;28;20036;-69
2021/09/12 21:12:39;;;;;;;7.88;2.00;;;15.10;97.10;;;;;;5111947;28;20035;-69
2021/09/12 21:15:06;;;;;;;6.57;2.10;;;15.10;97.20;;;;;;5114325;28;20046;-69
2021/09/12 21:17:31;;;;;;;9.20;2.80;;;15.00;97.30;;;;;;5113263;28;20047;-69
2021/09/12 21:19:57;;;;;;;8.80;2.33;;;15.00;97.40;;;;;;5112095;28;20043;-69
2021/09/12 21:22:22;;;;;;;10.37;2.30;;;15.00;97.40;;;;;;5114130;28;20056;-69
2021/09/12 21:24:48;;;;;;;10.27;2.60;;;15.00;97.50;;;;;;5113333;28;20054;-69
2021/09/12 21:27:14;;;;;;;9.47;2.50;;;15.00;97.50;;;;;;5113226;28;20039;-70
2021/09/12 21:29:40;;;;;;;6.83;2.47;;;15.00;97.60;;;;;;5114329;28;20043;-70
2021/09/12 21:32:06;;;;;;;10.43;2.20;;;15.00;97.60;;;;;;5114283;28;20046;-70
2021/09/12 21:34:31;;;;;;;9.27;2.77;;;14.90;97.70;;;;;;5113533;28;20119;-69
2021/09/12 21:36:57;;;;;;;10.47;2.67;;;14.90;97.70;;;;;;5113227;28;20040;-70
2021/09/12 21:39:22;;;;;;;8.23;3.60;;;14.90;97.80;;;;;;5113839;28;20035;-70
2021/09/12 21:41:48;;;;;;;7.53;2.70;;;14.90;97.80;;;;;;5114249;28;20048;-70
2021/09/12 21:44:13;;;;;;;7.13;2.23;;;14.90;97.90;;;;;;5114155;28;20133;-70
2021/09/12 21:46:39;;;;;;;9.67;2.67;;;14.90;97.90;;;;;;5112617;28;20093;-70
2021/09/12 21:49:05;;;;;;;7.23;2.70;;;14.90;98.00;;;;;;5114264;28;20054;-70
2021/09/12 21:51:30;;;;;;;9.47;3.53;;;14.90;98.10;;;;;;5112634;28;20039;-70
2021/09/12 21:53:56;;;;;;;9.60;2.47;;;14.90;98.10;;;;;;5111962;28;20096;-70
2021/09/12 21:56:21;;;;;;;6.47;3.20;;;14.90;98.20;;;;;;5112698;28;20047;-70
2021/09/12 21:58:47;;;;;;;7.90;3.07;;;14.80;98.20;;;;;;5114132;28;20036;-70
2021/09/12 22:01:12;;;;;;;8.00;2.37;;;14.80;98.30;;;;;;5113052;28;20368;-69
2021/09/12 22:03:42;;;;;;;8.27;3.10;;;14.80;98.40;;;;;;5113623;28;20084;-69
2021/09/12 22:06:08;;;;;;;6.03;2.73;;;14.80;98.40;;;;;;5112358;28;20096;-70
2021/09/12 22:08:34;;;;;;;7.07;2.57;;;14.80;98.50;;;;;;5112274;28;20043;-70
2021/09/12 22:11:01;;;;;;;7.57;3.03;;;14.80;98.50;;;;;;5112291;28;20188;-70
2021/09/12 22:13:29;;;;;;;5.70;2.73;;;14.80;98.60;;;;;;5113735;28;20538;-70
2021/09/12 22:15:54;;;;;;;5.67;2.87;;;14.80;98.70;;;;;;5111832;28;20400;-70
2021/09/12 22:18:20;;;;;;;8.43;3.03;;;14.80;98.80;;;;;;5111970;28;20050;-69
2021/09/12 22:20:45;;;;;;;8.33;3.40;;;14.80;98.90;;;;;;5112196;28;20058;-70
2021/09/12 22:23:13;;;;;;;7.57;2.90;;;14.80;98.90;;;;;;5112510;28;20544;-70
2021/09/12 22:25:39;;;;;;;9.03;3.03;;;14.90;99.00;;;;;;5113460;28;20047;-70
2021/09/12 22:28:05;;;;;;;9.90;3.43;;;14.90;99.10;;;;;;5113728;28;20043;-70
2021/09/12 22:30:31;;;;;;;8.77;3.40;;;14.90;99.10;;;;;;5110558;28;20036;-70
2021/09/12 22:32:56;;;;;;;8.17;2.80;;;15.00;99.10;;;;;;5113483;28;20168;-70
2021/09/12 22:35:22;;;;;;;10.77;3.17;;;15.00;99.20;;;;;;5113234;28;20440;-69
2021/09/12 22:37:48;;;;;;;6.43;2.97;;;15.10;99.20;;;;;;5112619;28;20035;-69
2021/09/12 22:40:14;;;;;;;12.17;3.80;;;15.10;99.20;;;;;;5112748;28;20115;-70
2021/09/12 22:42:39;;;;;;;6.23;2.63;;;15.10;99.20;;;;;;5112505;28;20186;-70
2021/09/12 22:45:06;;;;;;;8.40;3.60;;;15.10;99.20;;;;;;5113215;28;20067;-70
2021/09/12 22:47:32;;;;;;;6.27;3.50;;;15.20;99.30;;;;;;5112832;28;20134;-70
2021/09/12 22:49:57;;;;;;;10.00;3.70;;;15.20;99.30;;;;;;5111181;28;20083;-69
2021/09/12 22:52:25;;;;;;;9.00;4.00;;;15.10;99.40;;;;;;5112685;28;20417;-70
2021/09/12 22:54:50;;;;;;;7.27;3.17;;;15.20;99.50;;;;;;5111804;28;20055;-69
2021/09/12 22:57:16;;;;;;;8.90;3.70;;;15.20;99.60;;;;;;5111821;28;20051;-69
2021/09/12 22:59:41;;;;;;;8.23;3.50;;;15.10;99.70;;;;;;5111462;28;20092;-69
2021/09/12 23:02:07;;;;;;;11.70;3.90;;;15.10;99.90;;;;;;5112781;28;20048;-70
2021/09/12 23:04:33;;;;;;;6.83;3.47;;;15.10;99.90;;;;;;5110965;28;20047;-69
2021/09/12 23:06:58;;;;;;;8.73;3.67;;;15.10;99.90;;;;;;5111777;28;20557;-70
2021/09/12 23:09:24;;;;;;;10.03;4.37;;;15.10;99.90;;;;;;5112423;28;20552;-70
2021/09/12 23:11:49;;;;;;;10.90;4.10;;;15.10;99.90;;;;;;5110686;28;20056;-70
2021/09/12 23:14:15;;;;;;;7.13;3.57;;;15.20;99.90;;;;;;5111058;28;20093;-69
2021/09/12 23:16:40;;;;;;;9.30;4.03;;;15.20;99.90;;;;;;5112827;28;20096;-69
2021/09/12 23:19:06;;;;;;;6.20;3.60;;;15.20;99.90;;;;;;5112407;28;20066;-69
2021/09/12 23:21:31;;;;;;;8.47;4.23;;;15.20;99.90;;;;;;5112460;28;20104;-69
2021/09/12 23:23:57;;;;;;;7.93;4.07;;;15.20;99.90;;;;;;5112440;28;20043;-69
2021/09/12 23:26:22;;;;;;;8.60;3.93;;;15.30;99.90;;;;;;5111821;28;20415;-70
2021/09/12 23:28:48;;;;;;;11.73;3.83;;;15.20;99.90;;;;;;5112843;28;20055;-70
2021/09/12 23:31:13;;;;;;;7.30;3.70;;;15.20;99.90;;;;;;5112390;28;20040;-70
2021/09/12 23:33:39;;;;;;;9.53;5.07;;;15.30;99.90;;;;;;5110784;28;20105;-70
2021/09/12 23:36:05;;;;;;;8.20;3.77;;;15.30;99.90;;;;;;5112693;28;20460;-70
2021/09/12 23:38:30;;;;;;;8.33;3.47;;;15.30;99.90;;;;;;5111387;28;20066;-69
2021/09/12 23:40:56;;;;;;;8.67;3.60;;;15.30;99.90;;;;;;5112081;28;20040;-69
2021/09/12 23:43:21;;;;;;;6.27;3.37;;;15.40;99.90;;;;;;5115980;28;20084;-70
2021/09/12 23:45:47;;;;;;;7.43;3.17;;;15.40;99.90;;;;;;5115418;28;20058;-70
2021/09/12 23:48:12;;;;;;;5.63;3.00;;;15.40;99.90;;;;;;5115684;28;20045;-70
2021/09/12 23:50:38;;;;;;;5.20;3.03;;;15.40;99.90;;;;;;5115200;28;20123;-69
2021/09/12 23:53:04;;;;;;;6.23;3.07;;;15.40;99.90;;;;;;5115748;28;20035;-69
2021/09/12 23:55:29;;;;;;;7.10;3.13;;;15.40;99.90;;;;;;5114875;28;20040;-69
2021/09/12 23:57:55;;;;;;;6.27;2.70;;;15.40;99.90;;;;;;5116563;28;20039;-69
